West Endicott, New York
Current Conditions -  °F | °C
As of 9:28 AM on Friday 19 Dec 2014 (Local Time) from KBGM Reporting Station
Light Snow Light Snow  
Wind Chill: 13°   Ceiling: 800
Heat Index: 22°   Visibility: 2.5mi
Dew Point: 20°   Wind: 7mph
Humidity: 92%   Direction: 330°NNW
Pressure: 30.05"   Gusts: NA
Location:  42.1332°N, 76.0798°W
Report Text: KBGM 191428Z 33006KT 2 1/2SM -SN BR OVC008 M06/M07 A3005 RMK AO2 P0000 T10561067
Loading
Personal Weather Stations






























Interactive Weather Map New forecast layout! Learn more

10-Day Weather Forecast

Advertisements
Track Severe Weather on mobile